Time;durP1;ratioP1;P1;durP2;ratioP2;P2;SDS_P1;SDS_P2;PMS_P1;PMS_P2;Temp;Humidity;BMP_temperature;BMP_pressure;BME280_temperature;BME280_humidity;BME280_pressure;Samples;Min_cycle;Max_cycle;Signal;HPM_P1;HPM_P2
2024/04/10 00:01:44;;;;;;;11.25;2.53;;;7.70;99.90;;;;;;5528813;26;19997;-66
2024/04/10 00:04:11;;;;;;;15.15;2.60;;;7.70;99.90;;;;;;5528648;26;20009;-66
2024/04/10 00:06:38;;;;;;;12.77;2.45;;;7.70;99.90;;;;;;5528429;26;20009;-66
2024/04/10 00:09:05;;;;;;;17.75;2.17;;;7.70;99.90;;;;;;5527327;26;20011;-66
2024/04/10 00:11:32;;;;;;;14.82;2.20;;;7.70;99.90;;;;;;5528436;26;20045;-65
2024/04/10 00:13:59;;;;;;;9.82;1.85;;;7.70;99.90;;;;;;5528392;26;20385;-66
2024/04/10 00:16:26;;;;;;;14.43;2.65;;;7.70;99.90;;;;;;5528289;26;20001;-67
2024/04/10 00:18:53;;;;;;;12.55;3.55;;;7.60;99.90;;;;;;5528429;26;20316;-66
2024/04/10 00:21:21;;;;;;;14.02;3.20;;;7.60;99.90;;;;;;5528476;26;20001;-66
2024/04/10 00:23:49;;;;;;;8.98;2.22;;;7.60;99.90;;;;;;5528527;26;20461;-65
2024/04/10 00:26:18;;;;;;;15.82;2.28;;;7.60;99.90;;;;;;5528333;26;20474;-66
2024/04/10 00:28:45;;;;;;;12.13;2.10;;;7.50;99.90;;;;;;5528287;26;20324;-66
2024/04/10 00:31:12;;;;;;;10.70;2.20;;;7.50;99.90;;;;;;5528335;26;20014;-66
2024/04/10 00:33:39;;;;;;;17.05;2.85;;;7.50;99.90;;;;;;5528300;26;20013;-63
2024/04/10 00:36:08;;;;;;;10.93;2.40;;;7.50;99.90;;;;;;5495563;26;20342;-63
2024/04/10 00:38:35;;;;;;;15.77;2.35;;;7.50;99.90;;;;;;5528173;26;20001;-61
2024/04/10 00:41:03;;;;;;;10.57;2.30;;;7.40;99.90;;;;;;5528071;26;20012;-62
2024/04/10 00:43:30;;;;;;;12.13;2.42;;;7.40;99.90;;;;;;5528204;26;20029;-62
2024/04/10 00:45:57;;;;;;;15.50;2.15;;;7.40;99.90;;;;;;5528143;26;20442;-62
2024/04/10 00:48:24;;;;;;;13.50;2.38;;;7.40;99.90;;;;;;5527842;26;20101;-63
2024/04/10 00:50:51;;;;;;;12.15;2.15;;;7.40;99.90;;;;;;5527925;26;20354;-62
2024/04/10 00:53:18;;;;;;;15.20;2.33;;;7.30;99.90;;;;;;5527904;26;20129;-62
2024/04/10 00:55:45;;;;;;;14.60;2.30;;;7.30;99.90;;;;;;5495322;26;20008;-62
2024/04/10 00:58:12;;;;;;;13.13;2.33;;;7.30;99.90;;;;;;5495392;26;20384;-62
2024/04/10 01:00:38;;;;;;;14.68;2.28;;;7.30;99.90;;;;;;5527914;26;20014;-62
2024/04/10 01:03:06;;;;;;;10.25;2.35;;;7.30;99.90;;;;;;5528006;26;20008;-62
2024/04/10 01:05:33;;;;;;;10.85;2.40;;;7.30;99.90;;;;;;5528084;26;20001;-62
2024/04/10 01:08:02;;;;;;;14.70;2.25;;;7.30;99.90;;;;;;5527925;26;20005;-62
2024/04/10 01:10:29;;;;;;;13.32;2.13;;;7.30;99.90;;;;;;5528029;26;19997;-62
2024/04/10 01:12:55;;;;;;;12.82;2.30;;;7.20;99.90;;;;;;5527635;26;20045;-62
2024/04/10 01:15:22;;;;;;;12.25;2.25;;;7.20;99.90;;;;;;5495331;26;19994;-62
2024/04/10 01:17:49;;;;;;;12.80;2.10;;;7.20;99.90;;;;;;5527578;26;20332;-62
2024/04/10 01:20:16;;;;;;;13.73;2.83;;;7.20;99.90;;;;;;5527094;26;20021;-62
2024/04/10 01:22:43;;;;;;;13.55;2.63;;;7.20;99.90;;;;;;5527201;26;20013;-62
2024/04/10 01:25:10;;;;;;;12.05;2.15;;;7.20;99.90;;;;;;5527393;26;20009;-62
2024/04/10 01:27:37;;;;;;;15.23;2.00;;;7.20;99.90;;;;;;5527364;26;20002;-62
2024/04/10 01:30:04;;;;;;;13.10;2.10;;;7.20;99.90;;;;;;5494887;26;20013;-62
2024/04/10 01:32:31;;;;;;;14.50;2.50;;;7.20;99.90;;;;;;5527398;26;20077;-63
2024/04/10 01:34:58;;;;;;;16.58;2.63;;;7.20;99.90;;;;;;5527327;26;20002;-62
2024/04/10 01:37:25;;;;;;;11.13;2.28;;;7.20;99.90;;;;;;5527296;26;20020;-62
2024/04/10 01:39:52;;;;;;;12.82;2.28;;;7.20;99.90;;;;;;5527552;26;19997;-62
2024/04/10 01:42:19;;;;;;;13.00;2.17;;;7.20;99.90;;;;;;5527015;26;20481;-62
2024/04/10 01:44:46;;;;;;;10.55;2.25;;;7.10;99.90;;;;;;5527233;26;20012;-62
2024/04/10 01:47:13;;;;;;;16.88;2.55;;;7.10;99.90;;;;;;5527171;26;20005;-65
2024/04/10 01:49:40;;;;;;;12.27;2.35;;;7.10;99.90;;;;;;5495309;26;20042;-66
2024/04/10 01:52:06;;;;;;;11.23;2.17;;;7.10;99.90;;;;;;5494994;26;20043;-66
2024/04/10 01:54:33;;;;;;;20.30;2.40;;;7.10;99.90;;;;;;5526754;26;19997;-67
2024/04/10 01:57:00;;;;;;;13.38;2.92;;;7.10;99.90;;;;;;5526703;26;20070;-65
2024/04/10 01:59:27;;;;;;;12.32;2.25;;;7.10;99.90;;;;;;5526823;26;20356;-66
2024/04/10 02:01:54;;;;;;;11.38;2.63;;;7.10;99.90;;;;;;5526859;26;20027;-66
2024/04/10 02:04:21;;;;;;;10.18;2.17;;;7.10;99.90;;;;;;5526831;26;20077;-65
2024/04/10 02:06:48;;;;;;;15.30;2.58;;;7.00;99.90;;;;;;5526545;26;20015;-66
2024/04/10 02:09:15;;;;;;;13.98;2.78;;;7.00;99.90;;;;;;5494169;26;20006;-65
2024/04/10 02:11:42;;;;;;;15.68;2.70;;;7.00;99.90;;;;;;5526799;26;20427;-66
2024/04/10 02:14:09;;;;;;;17.45;3.17;;;7.00;99.90;;;;;;5526903;26;20001;-65
2024/04/10 02:16:36;;;;;;;18.50;2.65;;;7.00;99.90;;;;;;5526596;26;20462;-65
2024/04/10 02:19:03;;;;;;;15.48;2.72;;;7.00;99.90;;;;;;5526767;26;20093;-64
2024/04/10 02:21:30;;;;;;;13.98;2.20;;;7.00;99.90;;;;;;5526485;26;20047;-64
2024/04/10 02:23:57;;;;;;;14.45;2.75;;;6.90;99.90;;;;;;5526278;26;20345;-64
2024/04/10 02:26:23;;;;;;;13.65;2.53;;;6.90;99.90;;;;;;5526504;26;20009;-64
2024/04/10 02:28:51;;;;;;;13.23;2.30;;;6.90;99.90;;;;;;5526546;26;20033;-64
2024/04/10 02:31:18;;;;;;;15.40;2.33;;;6.90;99.90;;;;;;5525355;26;20132;-64
2024/04/10 02:33:45;;;;;;;14.02;1.80;;;6.90;99.90;;;;;;5526354;26;20005;-65
2024/04/10 02:36:12;;;;;;;17.67;2.55;;;6.90;99.90;;;;;;5526026;26;20470;-64
2024/04/10 02:38:39;;;;;;;15.10;3.55;;;6.90;99.90;;;;;;5526351;26;20054;-65
2024/04/10 02:41:07;;;;;;;12.60;1.95;;;6.90;99.90;;;;;;5526233;26;20488;-64
2024/04/10 02:43:34;;;;;;;11.90;2.60;;;6.90;99.90;;;;;;5526288;26;20518;-64
2024/04/10 02:46:01;;;;;;;15.23;3.00;;;6.90;99.90;;;;;;5526072;26;20026;-65
2024/04/10 02:48:28;;;;;;;15.68;3.03;;;6.90;99.90;;;;;;5526250;26;19997;-64
2024/04/10 02:50:55;;;;;;;15.93;2.65;;;6.90;99.90;;;;;;5493470;26;20446;-64
2024/04/10 02:53:22;;;;;;;15.20;2.30;;;6.90;99.90;;;;;;5525907;26;20013;-65
2024/04/10 02:55:49;;;;;;;14.88;2.70;;;6.80;99.90;;;;;;5525698;26;20013;-64
2024/04/10 02:58:16;;;;;;;12.60;2.25;;;6.80;99.90;;;;;;5526220;26;20001;-64
2024/04/10 03:00:43;;;;;;;11.75;2.30;;;6.80;99.90;;;;;;5525726;26;20399;-64
2024/04/10 03:03:10;;;;;;;16.20;2.85;;;6.80;99.90;;;;;;5562161;25;20028;-65
2024/04/10 03:05:37;;;;;;;19.05;2.70;;;6.70;99.90;;;;;;5563047;25;20330;-64
2024/04/10 03:08:05;;;;;;;13.43;2.30;;;6.80;99.90;;;;;;5563170;25;19997;-64
2024/04/10 03:10:31;;;;;;;15.73;2.10;;;6.70;99.90;;;;;;5530445;25;20000;-64
2024/04/10 03:12:59;;;;;;;12.07;2.35;;;6.70;99.90;;;;;;5563290;25;19992;-64
2024/04/10 03:15:25;;;;;;;11.70;1.80;;;6.70;99.90;;;;;;5563038;25;20013;-64
2024/04/10 03:17:53;;;;;;;15.52;2.72;;;6.60;99.90;;;;;;5563005;25;20004;-64
2024/04/10 03:20:21;;;;;;;13.48;2.42;;;6.60;99.90;;;;;;5563144;25;20013;-65
2024/04/10 03:22:48;;;;;;;12.57;2.75;;;6.60;99.90;;;;;;5529741;25;20347;-64
2024/04/10 03:25:16;;;;;;;15.32;2.40;;;6.60;99.90;;;;;;5562896;25;19996;-64
2024/04/10 03:27:43;;;;;;;17.85;2.80;;;6.60;99.90;;;;;;5562585;25;20029;-65
2024/04/10 03:30:10;;;;;;;17.08;2.72;;;6.50;99.90;;;;;;5562531;25;20412;-64
2024/04/10 03:32:37;;;;;;;12.13;2.92;;;6.50;99.90;;;;;;5562585;25;20317;-64
2024/04/10 03:35:04;;;;;;;11.35;2.28;;;6.50;99.90;;;;;;5562589;25;20007;-64
2024/04/10 03:37:31;;;;;;;11.52;2.15;;;6.50;99.90;;;;;;5562556;25;20442;-64
2024/04/10 03:39:57;;;;;;;14.38;2.88;;;6.50;99.90;;;;;;5562651;25;20080;-64
2024/04/10 03:42:25;;;;;;;15.80;2.20;;;6.40;99.90;;;;;;5563455;25;20072;-64
2024/04/10 03:44:52;;;;;;;11.23;2.35;;;6.40;99.90;;;;;;5566431;25;19997;-65
2024/04/10 03:47:19;;;;;;;11.50;2.42;;;6.40;99.90;;;;;;5566353;25;19997;-64
2024/04/10 03:49:46;;;;;;;13.48;2.40;;;6.40;99.90;;;;;;5566273;25;20001;-65
2024/04/10 03:52:13;;;;;;;12.85;2.40;;;6.40;99.90;;;;;;5566327;25;20004;-65
2024/04/10 03:54:40;;;;;;;16.67;3.67;;;6.40;99.90;;;;;;5566246;25;20005;-64
2024/04/10 03:57:09;;;;;;;14.00;2.92;;;6.30;99.90;;;;;;5565748;25;20005;-65
2024/04/10 03:59:37;;;;;;;15.10;2.75;;;6.30;99.90;;;;;;5566162;25;20019;-65
2024/04/10 04:02:04;;;;;;;14.30;2.28;;;6.30;99.90;;;;;;5566294;25;20515;-64
2024/04/10 04:04:31;;;;;;;9.10;2.25;;;6.30;99.90;;;;;;5566158;25;20307;-65
2024/04/10 04:06:58;;;;;;;15.30;1.95;;;6.20;99.90;;;;;;5566199;25;19993;-64
2024/04/10 04:09:25;;;;;;;10.00;2.03;;;6.20;99.90;;;;;;5565903;25;20450;-65
2024/04/10 04:11:52;;;;;;;10.20;2.08;;;6.20;99.90;;;;;;5565809;25;20025;-64
2024/04/10 04:14:19;;;;;;;16.05;2.10;;;6.10;99.90;;;;;;5565874;25;20013;-64
2024/04/10 04:16:46;;;;;;;14.10;2.22;;;6.10;99.90;;;;;;5565551;25;20052;-64
2024/04/10 04:19:14;;;;;;;11.95;3.17;;;6.00;99.90;;;;;;5532728;25;20016;-62
2024/04/10 04:21:41;;;;;;;13.10;3.00;;;6.00;99.90;;;;;;5566100;25;20015;-62
2024/04/10 04:24:08;;;;;;;11.38;3.42;;;6.00;99.90;;;;;;5565779;25;20038;-61
2024/04/10 04:26:35;;;;;;;13.18;2.88;;;5.90;99.90;;;;;;5565646;25;20009;-61
2024/04/10 04:29:02;;;;;;;16.38;3.17;;;5.90;99.90;;;;;;5565949;25;20016;-61
2024/04/10 04:31:29;;;;;;;13.88;2.72;;;5.90;99.90;;;;;;5565969;25;20046;-61
2024/04/10 04:33:56;;;;;;;13.88;2.40;;;5.90;99.90;;;;;;5565972;25;20049;-61
2024/04/10 04:36:24;;;;;;;10.05;2.50;;;5.80;99.90;;;;;;5565379;25;19993;-61
2024/04/10 04:38:51;;;;;;;12.00;2.22;;;5.80;99.90;;;;;;5565419;25;20011;-61
2024/04/10 04:41:18;;;;;;;12.13;2.35;;;5.80;99.90;;;;;;5565729;25;20077;-61
2024/04/10 04:43:45;;;;;;;15.30;3.03;;;5.80;99.90;;;;;;5565509;25;20005;-61
2024/04/10 04:46:12;;;;;;;10.95;2.75;;;5.80;99.90;;;;;;5565533;25;20008;-61
2024/04/10 04:48:38;;;;;;;15.50;3.17;;;5.80;99.90;;;;;;5565574;25;20004;-61
2024/04/10 04:51:10;;;;;;;10.43;2.42;;;5.80;99.90;;;;;;5565214;25;20355;-65
2024/04/10 04:53:38;;;;;;;15.13;3.60;;;5.70;99.90;;;;;;5565099;25;20482;-64
2024/04/10 04:56:05;;;;;;;9.98;2.47;;;5.70;99.90;;;;;;5565225;25;20032;-64
2024/04/10 04:58:32;;;;;;;13.98;2.75;;;5.80;99.90;;;;;;5565339;25;20099;-65
2024/04/10 05:00:59;;;;;;;13.15;2.60;;;5.70;99.90;;;;;;5565133;25;20363;-65
2024/04/10 05:06:13;;;;;;;10.75;2.63;;;5.70;99.90;;;;;;5564886;25;20466;-64
2024/04/10 05:08:42;;;;;;;12.20;2.75;;;5.70;99.90;;;;;;5565270;25;20036;-65
2024/04/10 05:11:09;;;;;;;12.40;2.42;;;5.70;99.90;;;;;;5565168;25;19992;-66
2024/04/10 05:13:39;;;;;;;14.80;3.00;;;5.70;99.90;;;;;;5565324;25;20013;-66
2024/04/10 05:16:06;;;;;;;13.18;2.67;;;5.70;99.90;;;;;;5565179;25;20011;-66
2024/04/10 05:18:33;;;;;;;10.32;3.20;;;5.70;99.90;;;;;;5565465;25;20000;-62
2024/04/10 05:21:00;;;;;;;13.32;2.70;;;5.70;99.90;;;;;;5565360;25;20009;-63
2024/04/10 05:23:28;;;;;;;9.80;2.20;;;5.70;99.90;;;;;;5565041;25;20001;-63
2024/04/10 05:25:55;;;;;;;20.10;3.05;;;5.70;99.90;;;;;;5565050;25;20072;-62
2024/04/10 05:28:25;;;;;;;12.18;3.00;;;5.70;99.90;;;;;;5565214;25;20286;-62
2024/04/10 05:30:52;;;;;;;13.90;3.08;;;5.80;99.90;;;;;;5564488;25;20449;-62
2024/04/10 05:33:18;;;;;;;12.07;3.15;;;5.80;99.90;;;;;;5564680;25;20012;-61
2024/04/10 05:35:46;;;;;;;13.18;2.40;;;5.80;99.90;;;;;;5564672;25;20020;-61
2024/04/10 05:38:12;;;;;;;8.50;2.90;;;5.90;99.90;;;;;;5564645;25;20346;-60
2024/04/10 05:40:40;;;;;;;12.07;2.40;;;5.90;99.90;;;;;;5531949;25;19992;-62
2024/04/10 05:43:07;;;;;;;8.60;2.33;;;5.90;99.90;;;;;;5564746;25;20009;-61
2024/04/10 05:45:35;;;;;;;12.73;2.40;;;6.00;99.90;;;;;;5564497;25;20365;-62
2024/04/10 05:48:02;;;;;;;15.02;2.50;;;6.00;99.90;;;;;;5564838;25;19997;-62
2024/04/10 05:50:30;;;;;;;12.73;2.70;;;6.10;99.90;;;;;;5564622;25;20096;-61
2024/04/10 05:52:56;;;;;;;13.18;2.30;;;6.20;99.90;;;;;;5564709;25;20330;-62
2024/04/10 05:55:25;;;;;;;13.90;2.75;;;6.20;99.90;;;;;;5564234;25;20075;-62
2024/04/10 05:57:52;;;;;;;12.57;2.20;;;6.30;99.90;;;;;;5564556;25;20005;-61
2024/04/10 06:00:19;;;;;;;15.75;2.42;;;6.40;99.90;;;;;;5500474;25;20011;-65
2024/04/10 06:02:48;;;;;;;11.15;1.90;;;6.40;99.90;;;;;;5564382;25;20071;-65
2024/04/10 06:05:15;;;;;;;12.00;2.35;;;6.50;99.90;;;;;;5563650;25;20012;-65
2024/04/10 06:07:44;;;;;;;11.07;1.95;;;6.50;99.90;;;;;;5563548;25;20004;-65
2024/04/10 06:10:11;;;;;;;10.50;2.00;;;6.60;99.90;;;;;;5564365;25;20012;-65
2024/04/10 06:12:38;;;;;;;13.32;2.28;;;6.70;99.90;;;;;;5564198;25;20130;-65
2024/04/10 06:15:05;;;;;;;13.73;2.42;;;6.70;99.90;;;;;;5564247;25;20342;-65
2024/04/10 06:17:32;;;;;;;10.95;2.15;;;6.80;99.90;;;;;;5564052;25;20011;-61
2024/04/10 06:19:59;;;;;;;11.23;1.92;;;6.90;99.90;;;;;;5563971;25;20045;-61
2024/04/10 06:22:26;;;;;;;11.25;1.75;;;6.90;99.90;;;;;;5563720;25;20017;-65
2024/04/10 06:26:07;;;;;;;20.67;2.42;;;7.00;99.90;;;;;;5508261;25;20764;-65
2024/04/10 06:28:34;;;;;;;9.23;1.88;;;7.00;99.90;;;;;;5471993;26;20547;-64
2024/04/10 06:31:01;;;;;;;10.48;2.50;;;7.10;99.90;;;;;;5472159;26;20476;-64
2024/04/10 06:33:28;;;;;;;12.73;2.13;;;7.10;99.90;;;;;;5472164;26;20478;-65
2024/04/10 06:35:55;;;;;;;10.18;1.77;;;7.20;99.90;;;;;;5472318;26;19998;-64
2024/04/10 06:38:22;;;;;;;16.38;2.38;;;7.20;99.90;;;;;;5471331;26;20007;-64
2024/04/10 06:40:49;;;;;;;16.38;2.55;;;7.30;99.90;;;;;;5472535;26;20009;-60
2024/04/10 06:43:16;;;;;;;14.45;2.20;;;7.30;99.90;;;;;;5470083;26;20003;-65
2024/04/10 06:45:43;;;;;;;11.10;2.17;;;7.30;99.90;;;;;;5471634;26;20018;-64
2024/04/10 06:48:10;;;;;;;12.38;1.95;;;7.40;99.90;;;;;;5471742;26;20002;-65
2024/04/10 06:50:37;;;;;;;11.00;2.35;;;7.40;99.90;;;;;;5471834;26;19999;-65
2024/04/10 06:53:09;;;;;;;12.73;2.50;;;7.50;99.90;;;;;;5471285;26;20007;-65
2024/04/10 06:55:36;;;;;;;12.35;2.08;;;7.50;99.90;;;;;;5470988;26;20620;-65
2024/04/10 06:58:03;;;;;;;14.23;2.35;;;7.60;99.90;;;;;;5471050;26;20007;-64
2024/04/10 07:00:30;;;;;;;11.13;2.20;;;7.70;99.90;;;;;;5470387;26;20075;-65
2024/04/10 07:02:57;;;;;;;13.95;3.22;;;7.80;99.90;;;;;;5471220;26;20443;-60
2024/04/10 07:05:24;;;;;;;14.45;2.25;;;7.80;99.90;;;;;;5469616;26;19998;-60
2024/04/10 07:07:51;;;;;;;12.88;2.40;;;7.80;99.90;;;;;;5467606;26;20007;-60
2024/04/10 07:10:18;;;;;;;11.38;1.88;;;7.90;99.90;;;;;;5469418;26;20005;-60
2024/04/10 07:12:45;;;;;;;14.02;2.53;;;8.00;99.90;;;;;;5469670;26;20003;-60
2024/04/10 07:15:12;;;;;;;13.02;2.67;;;8.00;99.90;;;;;;5469414;26;20036;-60
2024/04/10 07:17:39;;;;;;;14.13;1.80;;;8.00;99.90;;;;;;5470314;26;19998;-60
2024/04/10 07:20:06;;;;;;;14.48;2.63;;;8.00;99.90;;;;;;5470985;26;20006;-60
2024/04/10 07:22:33;;;;;;;11.23;2.13;;;8.10;99.90;;;;;;5469539;26;20332;-60
2024/04/10 07:25:00;;;;;;;13.32;2.45;;;8.10;99.90;;;;;;5471332;26;20003;-60
2024/04/10 07:27:26;;;;;;;11.05;2.58;;;8.10;99.90;;;;;;5471294;26;20038;-60
2024/04/10 07:29:56;;;;;;;13.68;2.22;;;8.20;99.90;;;;;;5471144;26;19999;-60
2024/04/10 07:32:23;;;;;;;17.92;3.35;;;8.20;99.90;;;;;;5469238;26;20086;-61
2024/04/10 07:34:50;;;;;;;11.73;3.45;;;8.30;99.90;;;;;;5469795;26;20002;-60
2024/04/10 07:37:17;;;;;;;17.00;3.40;;;8.30;99.90;;;;;;5422371;26;20669;-60
2024/04/10 07:39:44;;;;;;;13.45;2.85;;;8.30;99.90;;;;;;5452480;26;20014;-60
2024/04/10 07:42:11;;;;;;;9.52;2.83;;;8.40;99.90;;;;;;5455443;26;20003;-60
2024/04/10 07:44:39;;;;;;;12.60;2.45;;;8.40;99.90;;;;;;5454842;26;20010;-60
2024/04/10 07:47:09;;;;;;;14.02;2.78;;;8.40;99.90;;;;;;5453359;26;20018;-60
2024/04/10 07:49:36;;;;;;;10.70;2.05;;;8.40;99.90;;;;;;5455237;26;20006;-60
2024/04/10 07:52:03;;;;;;;13.00;2.47;;;8.50;99.90;;;;;;5455150;26;20010;-65
2024/04/10 07:54:31;;;;;;;13.68;2.15;;;8.50;99.90;;;;;;5447382;26;20568;-65
2024/04/10 07:56:58;;;;;;;12.90;2.22;;;8.60;99.90;;;;;;5441149;26;20029;-65
2024/04/10 07:59:26;;;;;;;14.43;2.40;;;8.70;99.90;;;;;;5453990;26;20355;-65
2024/04/10 08:01:53;;;;;;;8.05;1.83;;;8.70;99.90;;;;;;5453942;26;20007;-64
2024/04/10 08:04:20;;;;;;;12.00;2.67;;;8.80;99.90;;;;;;5452878;26;20003;-64
2024/04/10 08:06:47;;;;;;;10.65;2.28;;;8.90;99.90;;;;;;5446073;26;20336;-64
2024/04/10 08:09:14;;;;;;;10.32;2.67;;;9.00;99.90;;;;;;5451540;26;20368;-64
2024/04/10 08:11:44;;;;;;;12.18;2.10;;;9.00;99.90;;;;;;5454101;26;20528;-64
2024/04/10 08:14:11;;;;;;;16.98;2.58;;;9.00;99.90;;;;;;5454672;26;20026;-59
2024/04/10 08:16:38;;;;;;;13.10;2.28;;;9.10;99.90;;;;;;5443795;26;20007;-59
2024/04/10 08:19:06;;;;;;;9.07;2.38;;;9.30;99.90;;;;;;5418486;26;20355;-58
2024/04/10 08:21:36;;;;;;;12.88;2.45;;;9.40;99.90;;;;;;5434967;26;20400;-60
2024/04/10 08:24:03;;;;;;;13.00;2.42;;;9.50;99.90;;;;;;5453546;26;20009;-65
2024/04/10 08:26:32;;;;;;;11.85;2.08;;;9.60;99.90;;;;;;5453727;26;20007;-65
2024/04/10 08:28:59;;;;;;;9.32;2.35;;;9.70;99.90;;;;;;5432115;26;20008;-65
2024/04/10 08:31:29;;;;;;;18.45;3.22;;;9.80;99.90;;;;;;5440216;26;20026;-65
2024/04/10 08:33:56;;;;;;;12.18;2.15;;;9.90;99.90;;;;;;5454081;26;20017;-65
2024/04/10 08:36:23;;;;;;;11.48;2.22;;;10.00;99.90;;;;;;5453741;26;20011;-66
2024/04/10 08:38:51;;;;;;;11.13;1.90;;;10.10;99.90;;;;;;5453774;26;20013;-65
2024/04/10 08:41:18;;;;;;;9.95;2.08;;;10.20;99.90;;;;;;5453515;26;20083;-65
2024/04/10 08:43:45;;;;;;;12.40;2.78;;;10.20;99.90;;;;;;5454089;26;20010;-65
2024/04/10 08:46:12;;;;;;;15.35;2.92;;;10.20;99.90;;;;;;5453835;26;20002;-65
2024/04/10 08:48:39;;;;;;;14.25;2.42;;;10.30;99.90;;;;;;5454158;26;20072;-65
2024/04/10 08:51:06;;;;;;;12.90;3.38;;;10.20;99.90;;;;;;5453799;26;20006;-65
2024/04/10 08:53:33;;;;;;;9.20;1.98;;;10.20;99.90;;;;;;5453442;26;20326;-63
2024/04/10 08:56:00;;;;;;;13.48;3.38;;;10.20;99.90;;;;;;5453341;26;20463;-64
2024/04/10 08:58:33;;;;;;;10.10;2.53;;;10.20;99.90;;;;;;5439679;26;20004;-64
2024/04/10 09:01:00;;;;;;;8.35;2.55;;;10.10;99.90;;;;;;5450549;26;20016;-64
2024/04/10 09:03:27;;;;;;;17.63;3.20;;;10.10;99.90;;;;;;5453830;26;20448;-61
2024/04/10 09:05:54;;;;;;;15.27;2.90;;;10.20;99.90;;;;;;5453792;26;20049;-61
2024/04/10 09:08:21;;;;;;;11.95;2.63;;;10.30;99.90;;;;;;5453748;26;20143;-61
2024/04/10 09:10:48;;;;;;;11.23;2.10;;;10.30;99.90;;;;;;5453348;26;20410;-61
2024/04/10 09:13:15;;;;;;;12.50;2.92;;;10.40;99.90;;;;;;5418756;26;20018;-61
2024/04/10 09:15:42;;;;;;;12.40;2.55;;;10.40;99.90;;;;;;5444999;26;20035;-61
2024/04/10 09:18:09;;;;;;;13.32;2.35;;;10.50;99.90;;;;;;5453341;26;20072;-61
2024/04/10 09:20:36;;;;;;;16.27;2.80;;;10.70;99.90;;;;;;5452867;26;20018;-61
2024/04/10 09:23:06;;;;;;;13.57;2.35;;;10.80;99.90;;;;;;5453078;26;20519;-59
2024/04/10 09:25:33;;;;;;;11.07;2.55;;;10.80;99.90;;;;;;5452818;26;20053;-60
2024/04/10 09:28:00;;;;;;;12.02;2.58;;;11.00;99.90;;;;;;5453264;26;19999;-60
2024/04/10 09:30:27;;;;;;;13.27;2.55;;;11.10;99.90;;;;;;5452702;26;20003;-59
2024/04/10 09:32:54;;;;;;;11.07;2.55;;;11.30;99.90;;;;;;5452405;26;20006;-59
2024/04/10 09:35:21;;;;;;;8.90;2.15;;;11.40;99.90;;;;;;5452936;26;20014;-60
2024/04/10 09:37:48;;;;;;;11.10;1.92;;;11.60;99.90;;;;;;5453037;26;20452;-60
2024/04/10 09:40:15;;;;;;;11.25;1.92;;;11.70;99.90;;;;;;5452808;26;20013;-60
2024/04/10 09:42:42;;;;;;;8.77;1.70;;;11.80;99.90;;;;;;5427347;26;20014;-60
2024/04/10 09:45:15;;;;;;;9.90;1.67;;;11.90;99.90;;;;;;5433031;26;20400;-60
2024/04/10 09:47:42;;;;;;;12.73;1.98;;;11.90;99.90;;;;;;5452852;26;20558;-60
2024/04/10 09:50:10;;;;;;;9.20;1.50;;;12.00;99.90;;;;;;5452517;26;20002;-59
2024/04/10 09:52:37;;;;;;;6.65;1.40;;;12.00;99.90;;;;;;5452523;26;20409;-59
2024/04/10 09:55:04;;;;;;;6.05;1.50;;;12.10;99.90;;;;;;5447105;26;20076;-60
2024/04/10 09:57:31;;;;;;;5.38;1.60;;;12.20;99.90;;;;;;5415867;26;20003;-59
2024/04/10 10:00:00;;;;;;;7.15;1.58;;;12.30;99.90;;;;;;5426061;26;20068;-59
2024/04/10 10:02:32;;;;;;;8.73;1.70;;;12.50;99.90;;;;;;5452099;26;20039;-60
2024/04/10 10:04:59;;;;;;;11.32;2.30;;;12.70;99.90;;;;;;5452842;26;20002;-60
2024/04/10 10:07:26;;;;;;;7.60;1.65;;;13.00;99.90;;;;;;5452698;26;20014;-60
2024/04/10 10:09:53;;;;;;;9.50;1.92;;;13.10;99.90;;;;;;5451656;26;20003;-60
2024/04/10 10:12:19;;;;;;;10.15;1.80;;;13.20;99.90;;;;;;5452211;26;20007;-60
2024/04/10 10:14:46;;;;;;;8.25;2.08;;;13.20;99.90;;;;;;5452885;26;20010;-60
2024/04/10 10:17:13;;;;;;;11.50;1.80;;;13.30;99.90;;;;;;5452844;26;20055;-60
2024/04/10 10:19:41;;;;;;;8.50;2.00;;;13.30;99.90;;;;;;5452788;26;20009;-60
2024/04/10 10:22:08;;;;;;;15.70;2.80;;;13.40;99.90;;;;;;5452948;26;20313;-61
2024/04/10 10:24:36;;;;;;;12.52;2.35;;;13.40;99.90;;;;;;5451256;26;20007;-61
2024/04/10 10:27:03;;;;;;;9.15;3.10;;;13.40;99.90;;;;;;5452290;26;20003;-62
2024/04/10 10:29:30;;;;;;;12.85;2.35;;;13.40;99.90;;;;;;5449733;26;20027;-61
2024/04/10 10:31:58;;;;;;;12.02;3.80;;;13.30;99.90;;;;;;5452584;26;20022;-61
2024/04/10 10:34:25;;;;;;;13.55;4.80;;;13.30;99.90;;;;;;5452173;26;20014;-62
2024/04/10 10:36:52;;;;;;;11.70;5.10;;;13.30;99.90;;;;;;5451293;26;19999;-61
2024/04/10 10:39:20;;;;;;;9.73;3.25;;;13.30;99.90;;;;;;5452678;26;20025;-62
2024/04/10 10:41:46;;;;;;;7.10;2.22;;;13.30;99.90;;;;;;5451321;26;20007;-61
2024/04/10 10:44:13;;;;;;;10.40;2.30;;;13.40;99.90;;;;;;5452449;26;20451;-62
2024/04/10 10:46:40;;;;;;;12.77;2.50;;;13.50;99.90;;;;;;5450891;26;20010;-61
2024/04/10 10:49:07;;;;;;;12.30;2.72;;;13.60;99.90;;;;;;5452135;26;20122;-61
2024/04/10 10:51:35;;;;;;;17.60;4.47;;;13.70;99.90;;;;;;5452039;26;20444;-62
2024/04/10 10:54:03;;;;;;;10.10;2.83;;;13.80;99.90;;;;;;5450885;26;20003;-62
2024/04/10 10:56:30;;;;;;;14.52;2.30;;;13.90;99.90;;;;;;5450260;26;20022;-63
2024/04/10 10:58:57;;;;;;;15.77;3.17;;;13.90;99.90;;;;;;5449236;26;20003;-62
2024/04/10 11:01:24;;;;;;;10.55;2.67;;;14.00;99.90;;;;;;5451659;26;20083;-62
2024/04/10 11:03:52;;;;;;;12.18;3.58;;;13.90;99.90;;;;;;5451699;26;20003;-64
2024/04/10 11:06:19;;;;;;;13.77;3.70;;;14.00;99.90;;;;;;5414163;26;20015;-64
2024/04/10 11:08:46;;;;;;;14.00;3.70;;;14.00;99.90;;;;;;5416224;26;20003;-66
2024/04/10 11:11:13;;;;;;;7.20;2.17;;;14.00;99.90;;;;;;5448942;26;20006;-64
2024/04/10 11:13:40;;;;;;;11.73;2.92;;;14.10;99.90;;;;;;5455586;26;20022;-65
2024/04/10 11:16:07;;;;;;;15.20;2.60;;;14.10;99.90;;;;;;5454630;26;20305;-64
2024/04/10 11:18:34;;;;;;;8.13;2.30;;;14.10;99.90;;;;;;5455504;26;20003;-64
2024/04/10 11:21:01;;;;;;;11.02;2.45;;;14.20;99.90;;;;;;5454119;26;20338;-64
2024/04/10 11:23:30;;;;;;;10.18;2.05;;;14.40;99.90;;;;;;5455405;26;20007;-65
2024/04/10 11:25:58;;;;;;;9.77;1.98;;;14.50;99.90;;;;;;5454170;26;20383;-62
2024/04/10 11:28:25;;;;;;;11.93;2.03;;;14.50;99.90;;;;;;5455394;26;20018;-60
2024/04/10 11:30:52;;;;;;;8.93;2.00;;;14.40;99.90;;;;;;5454314;26;20312;-60
2024/04/10 11:33:19;;;;;;;10.68;2.08;;;14.40;99.90;;;;;;5454897;26;20075;-60
2024/04/10 11:35:46;;;;;;;7.88;2.10;;;14.40;99.90;;;;;;5454216;26;20471;-60
2024/04/10 11:38:15;;;;;;;7.40;1.52;;;14.40;99.90;;;;;;5455012;26;20464;-63
2024/04/10 11:40:43;;;;;;;9.93;2.40;;;14.30;99.90;;;;;;5454563;26;20527;-63
2024/04/10 11:43:10;;;;;;;9.77;2.28;;;14.30;99.90;;;;;;5453896;26;20014;-62
2024/04/10 11:45:37;;;;;;;10.45;2.35;;;14.40;99.90;;;;;;5454827;26;20421;-61
2024/04/10 11:48:05;;;;;;;11.90;2.72;;;14.50;99.90;;;;;;5455407;26;20327;-61
2024/04/10 11:50:36;;;;;;;11.43;2.67;;;14.40;99.90;;;;;;5428159;26;20006;-62
2024/04/10 11:53:04;;;;;;;10.68;2.38;;;14.40;99.90;;;;;;5404363;26;20018;-62
2024/04/10 11:55:31;;;;;;;13.40;3.25;;;14.30;99.90;;;;;;5421634;26;20018;-61
2024/04/10 11:57:57;;;;;;;11.35;2.75;;;14.40;99.90;;;;;;5455234;26;20013;-61
2024/04/10 12:00:24;;;;;;;15.95;3.47;;;14.40;99.90;;;;;;5454794;26;20017;-61
2024/04/10 12:02:52;;;;;;;13.38;2.90;;;14.50;99.90;;;;;;5445042;26;20019;-62
2024/04/10 12:05:19;;;;;;;11.50;2.50;;;14.60;99.90;;;;;;5447958;26;20041;-61
2024/04/10 12:07:46;;;;;;;14.45;2.45;;;14.60;99.90;;;;;;5450283;26;20010;-61
2024/04/10 12:10:13;;;;;;;12.73;2.30;;;14.70;99.90;;;;;;5440550;26;20460;-61
2024/04/10 12:12:40;;;;;;;8.77;2.10;;;14.70;99.90;;;;;;5442771;26;20015;-62
2024/04/10 12:15:08;;;;;;;12.20;2.38;;;14.70;99.90;;;;;;5441970;26;20007;-61
2024/04/10 12:17:35;;;;;;;7.95;1.90;;;14.70;99.90;;;;;;5465501;26;20038;-62
2024/04/10 12:20:03;;;;;;;11.88;2.30;;;14.80;99.90;;;;;;5419410;26;20004;-62
2024/04/10 12:22:32;;;;;;;11.85;2.67;;;14.90;99.90;;;;;;5443024;26;20340;-62
2024/04/10 12:24:58;;;;;;;10.43;2.40;;;15.00;99.90;;;;;;5454526;26;20029;-61
2024/04/10 12:27:26;;;;;;;9.52;2.22;;;15.00;99.90;;;;;;5452705;26;20007;-60
2024/04/10 12:29:53;;;;;;;13.65;2.15;;;14.90;99.90;;;;;;5455696;26;20559;-60
2024/04/10 12:32:20;;;;;;;14.00;2.85;;;15.00;99.90;;;;;;5454173;26;20075;-60
2024/04/10 12:34:47;;;;;;;10.45;2.20;;;15.10;99.90;;;;;;5454899;26;20007;-64
2024/04/10 12:40:01;;;;;;;8.68;2.72;;;15.20;99.90;;;;;;5454547;26;20040;-64
2024/04/10 12:42:29;;;;;;;10.77;2.45;;;15.30;99.90;;;;;;5448932;26;20094;-63
2024/04/10 12:44:57;;;;;;;12.38;2.42;;;15.30;99.90;;;;;;5444941;26;20002;-63
2024/04/10 12:47:24;;;;;;;9.15;2.08;;;15.30;99.90;;;;;;5454215;26;20006;-63
2024/04/10 12:49:51;;;;;;;15.88;2.42;;;15.40;99.90;;;;;;5453277;26;20300;-63
2024/04/10 12:52:19;;;;;;;12.13;2.63;;;15.50;99.90;;;;;;5454092;26;20047;-63